Dades meteomassalio
Diari Summary for Abril 4, 2017 Units:  Metric    English   Both
« Previous Day
Next Day »
Diari Semanal Mensual Anual Personalitzat
  Maxima: Minima: Mijana:
Temperatura: -17.8 °C -15.2 °C -10.8 °C
Rosada: -17.8 °C -16.5 °C -14.6 °C
Humitat: Humidity % 33 % 65 %
Velocitat del vent: 0 km/h 0 km/h 19 km/h
Racha vent: 0 km/h - -
Vent:- - WNW
Pressio: 0 hPa 34554.1 hPa -
Pluja: 0 mm    
Historical Graphs
 
 
Tabular Data for Abril 4, 2017
Time Temperature Dew Point Pressure Wind Wind Speed Wind Gust Humidity Rainfall Rate (Hourly) solar Conditions
-17.8 °C -17.8 °C 0 hPa Calm     Humidity % 0 mm SolarRadiationWatts/m^2 W/m2 Conditions
00:01 -13.4 °C -15.8 °C 34659.1 hPa Calm     75 % 0 mm 0.0 W/m2 CLR
00:06 -13.5 °C -15.8 °C 34669.3 hPa Calm     75 % 0 mm 0.0 W/m2 CLR
00:11 -13.5 °C -15.8 °C 34659.1 hPa Calm     75 % 0 mm 0.0 W/m2 CLR
00:16 -13.6 °C -15.9 °C 34659.1 hPa Calm     75 % 0 mm 0.0 W/m2 CLR
00:21 -13.6 °C -15.8 °C 34669.3 hPa Calm     76 % 0 mm 0.0 W/m2 CLR
00:26 -13.7 °C -15.9 °C 34669.3 hPa Calm     76 % 0 mm 0.0 W/m2 CLR
00:31 -13.7 °C -15.9 °C 34669.3 hPa Calm     76 % 0 mm 0.0 W/m2 CLR
00:36 -13.8 °C -15.9 °C 34669.3 hPa Calm     77 % 0 mm 0.0 W/m2 CLR
00:41 -13.8 °C -15.8 °C 34669.3 hPa Calm     78 % 0 mm 0.0 W/m2 CLR
00:46 -13.9 °C -15.9 °C 34669.3 hPa Calm     78 % 0 mm 0.0 W/m2 CLR
00:51 -14 °C -15.9 °C 34669.3 hPa Calm     78 % 0 mm 0.0 W/m2 CLR
00:56 -14 °C -16 °C 34669.3 hPa Calm     78 % 0 mm 0.0 W/m2 CLR
01:01 -14 °C -16 °C 34669.3 hPa Calm     78 % 0 mm 0.0 W/m2 CLR
01:06 -14 °C -15.9 °C 34669.3 hPa Calm     79 % 0 mm 0.0 W/m2 CLR
01:11 -14.1 °C -16 °C 34669.3 hPa Calm     79 % 0 mm 0.0 W/m2 CLR
01:16 -14.2 °C -16 °C 34669.3 hPa Calm     80 % 0 mm 0.0 W/m2 CLR
01:21 -14.3 °C -16.1 °C 34669.3 hPa Calm     80 % 0 mm 0.0 W/m2 CLR
01:26 -14.3 °C -16.1 °C 34669.3 hPa Calm     80 % 0 mm 0.0 W/m2 CLR
01:31 -14.3 °C -16.1 °C 34669.3 hPa Calm     80 % 0 mm 0.0 W/m2 CLR
01:36 -14.3 °C -16.1 °C 34659.1 hPa Calm     80 % 0 mm 0.0 W/m2 CLR
01:41 -14.3 °C -16.2 °C 34669.3 hPa Calm     80 % 0 mm 0.0 W/m2 CLR
01:46 -14.4 °C -16.2 °C 34669.3 hPa Calm     80 % 0 mm 0.0 W/m2 CLR
01:51 -14.4 °C -16.1 °C 34659.1 hPa Calm     81 % 0 mm 0.0 W/m2 CLR
01:56 -14.5 °C -16.2 °C 34659.1 hPa Calm     81 % 0 mm 0.0 W/m2 CLR
02:01 -14.5 °C -16.2 °C 34659.1 hPa Calm     81 % 0 mm 0.0 W/m2 CLR
02:06 -14.6 °C -16.2 °C 34659.1 hPa Calm     81 % 0 mm 0.0 W/m2 CLR
02:11 -14.5 °C -16.2 °C 34659.1 hPa Calm     81 % 0 mm 0.0 W/m2 CLR
02:16 -14.5 °C -16.2 °C 34659.1 hPa Calm     81 % 0 mm 0.0 W/m2 CLR
02:21 -14.5 °C -16.2 °C 34659.1 hPa Calm     81 % 0 mm 0.0 W/m2 CLR
02:26 -14.6 °C -16.2 °C 34659.1 hPa Calm     81 % 0 mm 0.0 W/m2 CLR
02:31 -14.5 °C -16.2 °C 34659.1 hPa Calm     81 % 0 mm 0.0 W/m2 CLR
02:36 -14.5 °C -16.2 °C 34659.1 hPa Calm     81 % 0 mm 0.0 W/m2 CLR
02:41 -14.5 °C -16.2 °C 34659.1 hPa Calm     81 % 0 mm 0.0 W/m2 CLR
02:46 -14.6 °C -16.2 °C 34659.1 hPa Calm     81 % 0 mm 0.0 W/m2 CLR
02:51 -14.6 °C -16.2 °C 34659.1 hPa Calm     81 % 0 mm 0.0 W/m2 CLR
02:56 -14.5 °C -16.2 °C 34659.1 hPa Calm     81 % 0 mm 0.0 W/m2 CLR
03:01 -14.5 °C -16.2 °C 34645.6 hPa Calm     81 % 0 mm 0.0 W/m2 CLR
03:06 -14.5 °C -16.2 °C 34645.6 hPa Calm     81 % 0 mm 0.0 W/m2 CLR
03:11 -14.4 °C -16.1 °C 34645.6 hPa Calm     81 % 0 mm 0.0 W/m2 CLR
03:16 -14.4 °C -16.1 °C 34645.6 hPa Calm     81 % 0 mm 0.0 W/m2 CLR
03:21 -14.4 °C -16.1 °C 34645.6 hPa Calm     81 % 0 mm 0.0 W/m2 CLR
03:26 -14.4 °C -16.1 °C 34645.6 hPa Calm     81 % 0 mm 0.0 W/m2 CLR
03:31 -14.3 °C -16 °C 34645.6 hPa Calm     81 % 0 mm 0.0 W/m2 CLR
03:36 -14.3 °C -16.1 °C 34645.6 hPa Calm     80 % 0 mm 0.0 W/m2 CLR
03:41 -14.3 °C -16.2 °C 34645.6 hPa Calm     80 % 0 mm 0.0 W/m2 CLR
03:46 -14.4 °C -16.2 °C 34645.6 hPa Calm     80 % 0 mm 0.0 W/m2 CLR
03:51 -14.5 °C -16.2 °C 34645.6 hPa Calm     80 % 0 mm 0.0 W/m2 CLR
03:56 -14.6 °C -16.3 °C 34645.6 hPa Calm     81 % 0 mm 0.0 W/m2 CLR
04:02 -14.7 °C -16.2 °C 34645.6 hPa Calm     82 % 0 mm 0.0 W/m2 CLR
04:06 -14.7 °C -16.3 °C 34659.1 hPa Calm     82 % 0 mm 0.0 W/m2 CLR
04:12 -14.8 °C -16.3 °C 34659.1 hPa Calm     83 % 0 mm 0.0 W/m2 CLR
04:17 -14.8 °C -16.3 °C 34659.1 hPa Calm     83 % 0 mm 0.0 W/m2 CLR
04:22 -14.9 °C -16.3 °C 34659.1 hPa Calm     83 % 0 mm 0.0 W/m2 CLR
04:27 -15 °C -16.5 °C 34659.1 hPa Calm     83 % 0 mm 0.0 W/m2 CLR
04:32 -15 °C -16.3 °C 34659.1 hPa Calm     85 % 0 mm 0.0 W/m2 CLR
04:37 -14.9 °C -16.3 °C 34659.1 hPa Calm     84 % 0 mm 0.0 W/m2 CLR
04:42 -14.9 °C -16.3 °C 34659.1 hPa Calm     85 % 0 mm 0.0 W/m2 CLR
04:47 -15 °C -16.4 °C 34659.1 hPa Calm     84 % 0 mm 0.0 W/m2 CLR
04:52 -15.1 °C -16.4 °C 34659.1 hPa Calm     84 % 0 mm 0.0 W/m2 CLR
04:57 -15.2 °C -16.4 °C 34659.1 hPa Calm     85 % 0 mm 0.0 W/m2 CLR
05:02 -15.2 °C -16.4 °C 34659.1 hPa Calm     86 % 0 mm 0.0 W/m2 CLR
05:07 -15.1 °C -16.3 °C 34659.1 hPa Calm     86 % 0 mm 0.0 W/m2 CLR
05:12 -14.9 °C -16.2 °C 34669.3 hPa Calm     86 % 0 mm 0.0 W/m2 CLR
05:17 -14.7 °C -15.9 °C 34659.1 hPa Calm     86 % 0 mm 0.0 W/m2 CLR
05:22 -14.6 °C -15.9 °C 34659.1 hPa Calm     85 % 0 mm 0.0 W/m2 CLR
05:27 -14.4 °C -15.7 °C 34659.1 hPa Calm     85 % 0 mm 0.0 W/m2 CLR
05:32 -13.8 °C -15.2 °C 34659.1 hPa West 3.1 km/h 3.1 km/h 85 % 0 mm 0.0 W/m2 CLR
05:37 -13.3 °C -14.9 °C 34669.3 hPa West 6 km/h 6 km/h 82 % 0 mm 0.0 W/m2 CLR
05:42 -13.2 °C -15.2 °C 34669.3 hPa WSW 9 km/h 9 km/h 77 % 0 mm 0.0 W/m2 CLR
05:47 -13.5 °C -15.7 °C 34659.1 hPa WSW 9 km/h 9 km/h 76 % 0 mm 0.0 W/m2 CLR
05:52 -13.6 °C -15.4 °C 34659.1 hPa WSW 9 km/h 9 km/h 79 % 0 mm 0.0 W/m2 CLR
05:57 -13.6 °C -15.4 °C 34669.3 hPa WSW 6 km/h 6 km/h 79 % 0 mm 0.0 W/m2 CLR
06:02 -13.6 °C -15.4 °C 34669.3 hPa Calm     79 % 0 mm 0.0 W/m2 CLR
06:07 -13.6 °C -15.4 °C 34669.3 hPa Calm     79 % 0 mm 0.0 W/m2 CLR
06:12 -13.7 °C -15.7 °C 34669.3 hPa Calm     78 % 0 mm 0.0 W/m2 CLR
06:17 -14 °C -15.9 °C 34669.3 hPa Calm     79 % 0 mm 0.0 W/m2 CLR
06:22 -14.1 °C -15.8 °C 34669.3 hPa Calm     81 % 0 mm 0.0 W/m2 CLR
06:27 -14.2 °C -15.8 °C 34682.8 hPa Calm     81 % 0 mm 0.0 W/m2 CLR
06:32 -14.2 °C -15.8 °C 34682.8 hPa Calm     82 % 0 mm 0.0 W/m2 CLR
06:37 -14.2 °C -15.8 °C 34682.8 hPa Calm     82 % 0 mm 0.0 W/m2 CLR
06:42 -14.2 °C -15.7 °C 34682.8 hPa SW 5.1 km/h 5.1 km/h 83 % 0 mm 0.0 W/m2 CLR
06:47 -14.1 °C -15.5 °C 34682.8 hPa Calm     84 % 0 mm 0.0 W/m2 CLR
06:52 -14.1 °C -15.5 °C 34682.8 hPa Calm     83 % 0 mm 0.0 W/m2 CLR
06:57 -14.1 °C -15.6 °C 34682.8 hPa Calm     82 % 0 mm 0.0 W/m2 CLR
07:02 -14.1 °C -15.8 °C 34682.8 hPa Calm     81 % 0 mm 0.0 W/m2 CLR
07:07 -14.2 °C -15.7 °C 34682.8 hPa Calm     82 % 0 mm 0.0 W/m2 CLR
07:12 -14.2 °C -15.8 °C 34693 hPa Calm     82 % 0 mm 0.0 W/m2 CLR
07:17 -14.3 °C -15.7 °C 34693 hPa Calm     83 % 0 mm 0.0 W/m2 CLR
07:22 -14.3 °C -15.8 °C 34693 hPa Calm     83 % 0 mm 0.0 W/m2 CLR
07:27 -14.4 °C -15.9 °C 34693 hPa Calm     83 % 0 mm 0.0 W/m2 OVC
07:28 -14.4 °C -15.9 °C 34693 hPa Calm     83 % 0 mm 0.0 W/m2 OVC
07:33 -14.5 °C -16 °C 34693 hPa Calm     83 % 0 mm 0.0 W/m2 OVC
07:38 -14.6 °C -15.9 °C 34693 hPa Calm     84 % 0 mm 5.0 W/m2 OVC
07:43 -14.7 °C -15.9 °C 34693 hPa Calm     85 % 0 mm 9.0 W/m2 BKN
07:48 -14.7 °C -15.9 °C 34693 hPa Calm     85 % 0 mm 12.0 W/m2 BKN
07:53 -14.7 °C -15.9 °C 34693 hPa Calm     86 % 0 mm 16.0 W/m2 BKN
07:58 -14.6 °C -15.8 °C 34703.1 hPa Calm     86 % 0 mm 21.0 W/m2 BKN
08:03 -14.6 °C -15.8 °C 34703.1 hPa Calm     86 % 0 mm 26.0 W/m2 BKN
08:08 -14.6 °C -15.8 °C 34703.1 hPa Calm     86 % 0 mm 33.0 W/m2 BKN
08:13 -14.6 °C -15.9 °C 34703.1 hPa Calm     85 % 0 mm 44.0 W/m2 BKN
08:18 -14.5 °C -15.7 °C 34703.1 hPa Calm     86 % 0 mm 54.0 W/m2 SCT
08:23 -14.3 °C -15.6 °C 34703.1 hPa Calm     86 % 0 mm 51.0 W/m2 SCT
08:28 -14.2 °C -15.4 °C 34703.1 hPa Calm     86 % 0 mm 70.0 W/m2 FEW
08:33 -14.1 °C -15.3 °C 34703.1 hPa Calm     85 % 0 mm 79.0 W/m2 FEW
08:38 -13.9 °C -15.2 °C 34703.1 hPa Calm     85 % 0 mm 58.0 W/m2 FEW
08:43 -13.7 °C -15.1 °C 34703.1 hPa Calm     84 % 0 mm 58.0 W/m2 FEW
08:48 -13.5 °C -15.1 °C 34703.1 hPa Calm     83 % 0 mm 42.0 W/m2 SCT
08:53 -13.3 °C -14.8 °C 34703.1 hPa Calm     83 % 0 mm 54.0 W/m2 SCT
08:58 -13.1 °C -14.7 °C 34693 hPa Calm     82 % 0 mm 130.0 W/m2 FEW
09:03 -12.8 °C -14.6 °C 34693 hPa Calm     80 % 0 mm 134.0 W/m2 CLR
09:08 -12.6 °C -14.5 °C 34693 hPa Calm     79 % 0 mm 188.0 W/m2 CLR
09:13 -12.3 °C -14.3 °C 34693 hPa Calm     78 % 0 mm 204.0 W/m2 CLR
09:18 -12.1 °C -14.2 °C 34693 hPa SW 10.3 km/h 10.3 km/h 77 % 0 mm 253.0 W/m2 CLR
09:23 -11.7 °C -14.1 °C 34693 hPa SW 11.9 km/h 11.9 km/h 75 % 0 mm 267.0 W/m2 CLR
09:28 -11.4 °C -14 °C 34693 hPa WNW 23.8 km/h 23.8 km/h 73 % 0 mm 288.0 W/m2 CLR
09:33 -11.1 °C -13.9 °C 34693 hPa WNW 32.8 km/h 32.8 km/h 71 % 0 mm 306.0 W/m2 CLR
09:38 -10.8 °C -13.9 °C 34693 hPa West 20.9 km/h 20.9 km/h 69 % 0 mm 323.0 W/m2 CLR
09:43 -10.7 °C -13.9 °C 34693 hPa West 38.8 km/h 38.8 km/h 68 % 0 mm 360.0 W/m2 CLR
09:48 -10.7 °C -13.9 °C 34693 hPa West 29.8 km/h 29.8 km/h 68 % 0 mm 336.0 W/m2 CLR
09:53 -10.6 °C -13.9 °C 34693 hPa West 41.7 km/h 41.7 km/h 67 % 0 mm 378.0 W/m2 CLR
09:58 -10.6 °C -13.8 °C 34693 hPa West 38.8 km/h 38.8 km/h 68 % 0 mm 397.0 W/m2 CLR
10:03 -10.5 °C -13.7 °C 34693 hPa WNW 23.3 km/h 23.3 km/h 68 % 0 mm 418.0 W/m2 CLR
10:08 -10.4 °C -13.7 °C 34693 hPa West 44.7 km/h 44.7 km/h 67 % 0 mm 424.0 W/m2 CLR
10:13 -10.3 °C -13.6 °C 34693 hPa WNW 38.8 km/h 38.8 km/h 68 % 0 mm 438.0 W/m2 CLR
10:18 -10.3 °C -13.6 °C 34682.8 hPa WNW 44.7 km/h 44.7 km/h 67 % 0 mm 292.0 W/m2 CLR
10:23 -10.2 °C -13.3 °C 34693 hPa WNW 41.7 km/h 41.7 km/h 69 % 0 mm 599.0 W/m2 CLR
10:28 -10.2 °C -13.4 °C 34682.8 hPa WNW 29.8 km/h 29.8 km/h 68 % 0 mm 243.0 W/m2 CLR
10:33 -10.2 °C -13.6 °C 34693 hPa West 41.7 km/h 41.7 km/h 67 % 0 mm 204.0 W/m2 CLR
10:38 -10.2 °C -13.4 °C 34693 hPa West 29.8 km/h 29.8 km/h 68 % 0 mm 225.0 W/m2 CLR
10:43 -10.1 °C -13.3 °C 34693 hPa WNW 36.2 km/h 36.2 km/h 68 % 0 mm 200.0 W/m2 CLR
10:48 -10.1 °C -13.4 °C 34693 hPa WNW 32.8 km/h 32.8 km/h 67 % 0 mm 200.0 W/m2 CLR
10:53 -10.2 °C -13.4 °C 34703.1 hPa NW 41.7 km/h 41.7 km/h 68 % 0 mm 195.0 W/m2 CLR
10:58 -10.3 °C -13.5 °C 34693 hPa NW 38.8 km/h 38.8 km/h 68 % 0 mm 156.0 W/m2 CLR
11:03 -10.4 °C -13.4 °C 34693 hPa West 38.8 km/h 38.8 km/h 69 % 0 mm 445.0 W/m2 CLR
11:08 -10.2 °C -13.3 °C 34693 hPa West 44.7 km/h 44.7 km/h 69 % 0 mm 601.0 W/m2 CLR
11:13 -10 °C -13.2 °C 34693 hPa West 35.7 km/h 35.7 km/h 68 % 0 mm 686.0 W/m2 CLR
11:18 -9.8 °C -13.1 °C 34693 hPa WNW 32.8 km/h 32.8 km/h 68 % 0 mm 689.0 W/m2 CLR
11:23 -9.8 °C -13.1 °C 34693 hPa NW 32.8 km/h 32.8 km/h 67 % 0 mm 643.0 W/m2 CLR
11:28 -9.8 °C -13.3 °C 34693 hPa NW 32.8 km/h 32.8 km/h 66 % 0 mm 244.0 W/m2 CLR
11:33 -9.8 °C -13.3 °C 34693 hPa West 41.7 km/h 41.7 km/h 66 % 0 mm 241.0 W/m2 CLR
11:38 -9.8 °C -13.2 °C 34693 hPa WSW 44.7 km/h 44.7 km/h 67 % 0 mm 724.0 W/m2 CLR
11:43 -9.6 °C -13.2 °C 34693 hPa WNW 50.7 km/h 50.7 km/h 65 % 0 mm 199.0 W/m2 CLR
11:48 -9.7 °C -13.1 °C 34693 hPa WNW 35.7 km/h 35.7 km/h 67 % 0 mm 717.0 W/m2 CLR
11:53 -9.6 °C -13.1 °C 34693 hPa WNW 38.8 km/h 38.8 km/h 66 % 0 mm 221.0 W/m2 CLR
11:58 -9.6 °C -13 °C 34682.8 hPa NW 26.9 km/h 26.9 km/h 66 % 0 mm 527.0 W/m2 CLR
12:04 -9.3 °C -12.7 °C 34693 hPa West 29.8 km/h 29.8 km/h 67 % 0 mm 842.0 W/m2 CLR
12:09 -9.2 °C -13.1 °C 34682.8 hPa WNW 38.8 km/h 38.8 km/h 63 % 0 mm 1018.0 W/m2 CLR
12:14 -9.4 °C -13 °C 34682.8 hPa WNW 25.9 km/h 25.9 km/h 65 % 0 mm 269.0 W/m2 CLR
12:19 -9.4 °C -13.2 °C 34682.8 hPa West 26.9 km/h 26.9 km/h 64 % 0 mm 452.0 W/m2 CLR
12:24 -9.3 °C -12.9 °C 34682.8 hPa WNW 28.5 km/h 29.3 km/h 65 % 0 mm 868.0 W/m2 CLR
12:29 -8.9 °C -12.7 °C 34682.8 hPa WNW 32.8 km/h 32.8 km/h 64 % 0 mm 902.0 W/m2 CLR
12:34 -8.7 °C -12.6 °C 34669.3 hPa NW 32.8 km/h 32.8 km/h 63 % 0 mm 933.0 W/m2 CLR
12:39 -8.5 °C -12.7 °C 34669.3 hPa WNW 26.9 km/h 26.9 km/h 61 % 0 mm 874.0 W/m2 CLR
12:44 -8.4 °C -12.8 °C 34669.3 hPa WNW 29.8 km/h 29.8 km/h 60 % 0 mm 795.0 W/m2 CLR
12:49 -8.4 °C -12.9 °C 34669.3 hPa NNW 35.7 km/h 35.7 km/h 59 % 0 mm 390.0 W/m2 CLR
12:54 -8.7 °C -12.9 °C 34669.3 hPa WNW 23.8 km/h 23.8 km/h 60 % 0 mm 613.0 W/m2 CLR
12:59 -8.8 °C -13.1 °C 34669.3 hPa WNW 35.7 km/h 35.7 km/h 60 % 0 mm 376.0 W/m2 CLR
13:04 -8.7 °C -12.8 °C 34669.3 hPa NW 29.8 km/h 29.8 km/h 61 % 0 mm 942.0 W/m2 CLR
13:09 -8.5 °C -13.1 °C 34669.3 hPa WNW 29.8 km/h 29.8 km/h 58 % 0 mm 517.0 W/m2 CLR
13:14 -8.5 °C -13.2 °C 34659.1 hPa WNW 29.8 km/h 29.8 km/h 58 % 0 mm 336.0 W/m2 CLR
13:19 -8.6 °C -12.9 °C 34659.1 hPa West 29.8 km/h 29.8 km/h 60 % 0 mm 649.0 W/m2 CLR
13:24 -8.5 °C -13 °C 34659.1 hPa WNW 41.7 km/h 41.7 km/h 59 % 0 mm 313.0 W/m2 CLR
13:29 -8.4 °C -13 °C 34659.1 hPa West 29.8 km/h 29.8 km/h 58 % 0 mm 847.0 W/m2 CLR
13:34 -8.3 °C -12.9 °C 34659.1 hPa NNW 35.7 km/h 35.7 km/h 58 % 0 mm 731.0 W/m2 CLR
13:39 -8.2 °C -12.8 °C 34659.1 hPa WNW 38.8 km/h 38.8 km/h 58 % 0 mm 626.0 W/m2 CLR
13:44 -8.2 °C -12.7 °C 34645.6 hPa NNW 33.6 km/h 33.6 km/h 59 % 0 mm 759.0 W/m2 CLR
13:49 -8.2 °C -12.7 °C 34659.1 hPa WNW 29.8 km/h 29.8 km/h 59 % 0 mm 766.0 W/m2 CLR
13:54 -8.1 °C -12.9 °C 34645.6 hPa WNW 41.7 km/h 41.7 km/h 57 % 0 mm 728.0 W/m2 CLR
13:59 -8.1 °C -12.9 °C 34645.6 hPa NW 32.8 km/h 32.8 km/h 57 % 0 mm 756.0 W/m2 CLR
14:04 -8.2 °C -12.9 °C 34645.6 hPa WNW 26.9 km/h 26.9 km/h 57 % 0 mm 436.0 W/m2 CLR
14:10 -8.3 °C -13.1 °C 34645.6 hPa WNW 32.8 km/h 32.8 km/h 57 % 0 mm 860.0 W/m2 CLR
14:15 -8 °C -12.9 °C 34645.6 hPa West 29.8 km/h 29.8 km/h 56 % 0 mm 865.0 W/m2 CLR
14:20 -7.9 °C -13.2 °C 34635.4 hPa NW 41.7 km/h 41.7 km/h 54 % 0 mm 570.0 W/m2 CLR
14:25 -8 °C -13.1 °C 34635.4 hPa NNW 41.7 km/h 41.7 km/h 55 % 0 mm 496.0 W/m2 CLR
14:30 -8 °C -12.8 °C 34635.4 hPa West 6 km/h 6 km/h 57 % 0 mm 719.0 W/m2 CLR
14:35 -7.7 °C -12.8 °C 34635.4 hPa West 26.9 km/h 28 km/h 55 % 0 mm 682.0 W/m2 CLR
14:40 -7.7 °C -12.8 °C 34635.4 hPa NW 33.6 km/h 36.2 km/h 55 % 0 mm 745.0 W/m2 CLR
14:45 -7.7 °C -13 °C 34625.2 hPa NNW 38.8 km/h 38.8 km/h 54 % 0 mm 786.0 W/m2 CLR
14:50 -7.6 °C -12.7 °C 34625.2 hPa WNW 29.8 km/h 29.8 km/h 55 % 0 mm 884.0 W/m2 CLR
14:55 -7.6 °C -12.7 °C 34625.2 hPa NW 28.5 km/h 28.5 km/h 55 % 0 mm 708.0 W/m2 CLR
15:00 -7.7 °C -12.8 °C 34625.2 hPa NW 26.9 km/h 26.9 km/h 55 % 0 mm 701.0 W/m2 CLR
15:05 -7.6 °C -12.9 °C 34625.2 hPa WNW 35.7 km/h 35.7 km/h 54 % 0 mm 779.0 W/m2 CLR
15:10 -7.5 °C -12.6 °C 34625.2 hPa NW 38.8 km/h 38.8 km/h 55 % 0 mm 731.0 W/m2 CLR
15:15 -7.6 °C -13 °C 34625.2 hPa NNW 41.7 km/h 41.7 km/h 53 % 0 mm 244.0 W/m2 CLR
15:20 -7.7 °C -12.8 °C 34625.2 hPa WNW 35.7 km/h 35.7 km/h 55 % 0 mm 793.0 W/m2 CLR
15:25 -7.6 °C -12.9 °C 34611.7 hPa NNW 26.9 km/h 26.9 km/h 53 % 0 mm 768.0 W/m2 CLR
15:30 -7.4 °C -13.1 °C 34611.7 hPa NNW 35.7 km/h 35.7 km/h 52 % 0 mm 773.0 W/m2 CLR
15:35 -7.4 °C -13.2 °C 34611.7 hPa WNW 9 km/h 9 km/h 51 % 0 mm 786.0 W/m2 CLR
15:40 -7.2 °C -13.1 °C 34611.7 hPa NW 23.3 km/h 23.3 km/h 50 % 0 mm 652.0 W/m2 CLR
15:45 -7.1 °C -13.4 °C 34611.7 hPa NNW 47.6 km/h 47.6 km/h 48 % 0 mm 613.0 W/m2 CLR
15:50 -7.2 °C -13.4 °C 34611.7 hPa NW 23.8 km/h 23.8 km/h 48 % 0 mm 682.0 W/m2 CLR
15:55 -7.2 °C -13.3 °C 34601.5 hPa North 38.8 km/h 38.8 km/h 49 % 0 mm 747.0 W/m2 CLR
16:00 -7.1 °C -13.4 °C 34601.5 hPa NW 50.7 km/h 50.7 km/h 48 % 0 mm 754.0 W/m2 CLR
16:05 -7.1 °C -13.5 °C 34601.5 hPa WNW 23.8 km/h 23.8 km/h 47 % 0 mm 700.0 W/m2 CLR
16:10 -7 °C -13.4 °C 34601.5 hPa NW 44.7 km/h 44.7 km/h 47 % 0 mm 717.0 W/m2 CLR
16:15 -7.1 °C -13.7 °C 34601.5 hPa WSW 9 km/h 9 km/h 46 % 0 mm 719.0 W/m2 CLR
16:20 -6.9 °C -13.2 °C 34601.5 hPa NW 44.1 km/h 44.1 km/h 48 % 0 mm 708.0 W/m2 CLR
16:25 -7 °C -13.8 °C 34591.4 hPa NW 11.9 km/h 11.9 km/h 45 % 0 mm 694.0 W/m2 CLR
16:30 -6.9 °C -13.2 °C 34591.4 hPa NNW 33.6 km/h 33.6 km/h 48 % 0 mm 682.0 W/m2 CLR
16:35 -6.8 °C -12.9 °C 34591.4 hPa NW 26.9 km/h 26.9 km/h 49 % 0 mm 670.0 W/m2 CLR
16:40 -6.8 °C -13.7 °C 34591.4 hPa West 26.9 km/h 26.9 km/h 45 % 0 mm 615.0 W/m2 CLR
16:45 -6.8 °C -13.5 °C 34577.8 hPa NW 9 km/h 9 km/h 46 % 0 mm 645.0 W/m2 CLR
16:50 -6.8 °C -13.8 °C 34591.4 hPa WNW 23.8 km/h 23.8 km/h 44 % 0 mm 633.0 W/m2 CLR
16:55 -6.8 °C -13.6 °C 34577.8 hPa NNW 15 km/h 15 km/h 45 % 0 mm 621.0 W/m2 CLR
17:00 -6.7 °C -13.2 °C 34577.8 hPa NW 28.5 km/h 28.5 km/h 47 % 0 mm 606.0 W/m2 CLR
17:05 -6.7 °C -13.9 °C 34577.8 hPa NW 6 km/h 6 km/h 43 % 0 mm 592.0 W/m2 CLR
17:10 -6.6 °C -14 °C 34577.8 hPa NNW 41.7 km/h 41.7 km/h 42 % 0 mm 575.0 W/m2 CLR
17:15 -6.7 °C -14.1 °C 34577.8 hPa NW 29.8 km/h 29.8 km/h 42 % 0 mm 559.0 W/m2 CLR
17:20 -6.7 °C -14.3 °C 34577.8 hPa North 25.9 km/h 25.9 km/h 41 % 0 mm 555.0 W/m2 CLR
17:21 -6.7 °C -14.5 °C 34577.8 hPa North 33.6 km/h 33.6 km/h 40 % 0 mm 554.0 W/m2 CLR
17:26 -6.6 °C -15.3 °C 34577.8 hPa NW 32.8 km/h 32.8 km/h 36 % 0 mm 531.0 W/m2 CLR
17:31 -6.6 °C -15.3 °C 34577.8 hPa NW 20.9 km/h 20.9 km/h 36 % 0 mm 519.0 W/m2 CLR
17:36 -6.6 °C -15.9 °C 34567.7 hPa NW 29.8 km/h 29.8 km/h 33 % 0 mm 508.0 W/m2 CLR
17:41 -6.6 °C -15.4 °C 34567.7 hPa NW 26.9 km/h 26.9 km/h 35 % 0 mm 494.0 W/m2 CLR
17:46 -6.5 °C -15.4 °C 34567.7 hPa NNW 17.9 km/h 17.9 km/h 35 % 0 mm 480.0 W/m2 CLR
17:51 -6.6 °C -15.7 °C 34567.7 hPa NNE 29.8 km/h 29.8 km/h 34 % 0 mm 459.0 W/m2 CLR
17:56 -6.5 °C -15.4 °C 34567.7 hPa NNW 3.1 km/h 3.1 km/h 35 % 0 mm 441.0 W/m2 CLR
18:01 -6.4 °C -14.8 °C 34567.7 hPa WNW 29.8 km/h 29.8 km/h 37 % 0 mm 427.0 W/m2 CLR
18:06 -6.4 °C -15.1 °C 34567.7 hPa North 9 km/h 9 km/h 36 % 0 mm 404.0 W/m2 CLR
18:11 -6.4 °C -14.7 °C 34567.7 hPa North 35.7 km/h 35.7 km/h 38 % 0 mm 390.0 W/m2 CLR
18:16 -6.5 °C -15.4 °C 34567.7 hPa NNW 29.8 km/h 29.8 km/h 35 % 0 mm 376.0 W/m2 CLR
18:21 -6.4 °C -14.5 °C 34554.1 hPa WNW 33.6 km/h 33.6 km/h 39 % 0 mm 357.0 W/m2 CLR
18:22 -6.4 °C -14.5 °C 34554.1 hPa WNW 32.8 km/h 32.8 km/h 39 % 0 mm 352.0 W/m2 CLR
18:27 -6.4 °C -14.7 °C 34554.1 hPa NW 29.8 km/h 29.8 km/h 38 % 0 mm 334.0 W/m2 CLR
18:32 -6.4 °C -14.8 °C 34554.1 hPa NW 23.8 km/h 23.8 km/h 37 % 0 mm 316.0 W/m2 CLR
18:37 -6.4 °C -15.1 °C 34567.7 hPa NNW 23.8 km/h 23.8 km/h 36 % 0 mm 297.0 W/m2 CLR
18:42 -6.6 °C -14.3 °C 34567.7 hPa WNW 29.8 km/h 29.8 km/h 40 % 0 mm 281.0 W/m2 CLR
18:47 -6.6 °C -14.4 °C 34567.7 hPa NW 12.9 km/h 15.3 km/h 40 % 0 mm 264.0 W/m2 CLR
18:52 -6.6 °C -14.2 °C 34567.7 hPa NW 29.8 km/h 29.8 km/h 41 % 0 mm 244.0 W/m2 CLR
18:57 -6.7 °C -14.3 °C 34567.7 hPa NW 32.8 km/h 32.8 km/h 41 % 0 mm 223.0 W/m2 CLR
19:02 -6.7 °C -13.9 °C 34567.7 hPa NW 35.7 km/h 35.7 km/h 43 % 0 mm 206.0 W/m2 CLR
19:07 -6.8 °C -13.8 °C 34567.7 hPa NW 32.8 km/h 32.8 km/h 44 % 0 mm 188.0 W/m2 CLR
19:12 -7 °C -13.9 °C 34567.7 hPa NW 44.7 km/h 44.7 km/h 44 % 0 mm 165.0 W/m2 CLR
19:17 -7.1 °C -13.8 °C 34567.7 hPa NW 41.4 km/h 41.4 km/h 45 % 0 mm 146.0 W/m2 CLR
19:22 -7.2 °C -13.8 °C 34567.7 hPa NW 53.6 km/h 53.6 km/h 46 % 0 mm 130.0 W/m2 CLR
19:27 -7.3 °C -13.7 °C 34567.7 hPa NW 35.7 km/h 35.7 km/h 47 % 0 mm 114.0 W/m2 CLR
19:32 -7.3 °C -13.7 °C 34567.7 hPa North 41.7 km/h 41.7 km/h 47 % 0 mm 95.0 W/m2 CLR
19:37 -7.4 °C -13.6 °C 34577.8 hPa NNW 35.7 km/h 35.7 km/h 48 % 0 mm 79.0 W/m2 FEW
19:42 -7.4 °C -13.9 °C 34577.8 hPa NNW 41.7 km/h 41.7 km/h 47 % 0 mm 67.0 W/m2 FEW
19:47 -7.6 °C -13.9 °C 34577.8 hPa NNW 33.6 km/h 33.6 km/h 47 % 0 mm 54.0 W/m2 SCT
19:53 -7.6 °C -13.8 °C 34577.8 hPa NW 41.7 km/h 41.7 km/h 48 % 0 mm 42.0 W/m2 BKN
19:58 -7.7 °C -13.8 °C 34577.8 hPa NNW 29.8 km/h 29.8 km/h 49 % 0 mm 26.0 W/m2 BKN
20:03 -7.8 °C -13.9 °C 34577.8 hPa NW 29.8 km/h 29.8 km/h 49 % 0 mm 19.0 W/m2 BKN
20:08 -7.9 °C -13.8 °C 34577.8 hPa NNW 29.8 km/h 29.8 km/h 50 % 0 mm 14.0 W/m2 BKN
20:13 -8.1 °C -14 °C 34577.8 hPa NW 35.7 km/h 35.7 km/h 50 % 0 mm 12.0 W/m2 BKN
20:18 -8.2 °C -13.9 °C 34577.8 hPa NNW 47.6 km/h 47.6 km/h 51 % 0 mm 9.0 W/m2 BKN
20:24 -8.4 °C -13.9 °C 34591.4 hPa North 38.8 km/h 38.8 km/h 52 % 0 mm 7.0 W/m2 BKN
20:29 -8.5 °C -13.8 °C 34591.4 hPa WNW 26.9 km/h 26.9 km/h 53 % 0 mm 5.0 W/m2 OVC
20:34 -8.7 °C -14 °C 34591.4 hPa NW 35.7 km/h 35.7 km/h 53 % 0 mm 0.0 W/m2 OVC
20:39 -8.7 °C -14.1 °C 34591.4 hPa NW 32.8 km/h 32.8 km/h 53 % 0 mm 0.0 W/m2 CLR
20:44 -8.8 °C -14.2 °C 34591.4 hPa NW 23.8 km/h 23.8 km/h 53 % 0 mm 0.0 W/m2 CLR
20:49 -8.9 °C -14.1 °C 34591.4 hPa NW 20.8 km/h 20.8 km/h 54 % 0 mm 0.0 W/m2 CLR
20:54 -9.1 °C -14.1 °C 34591.4 hPa NNW 38.8 km/h 38.8 km/h 55 % 0 mm 0.0 W/m2 CLR
20:59 -9.1 °C -14.1 °C 34591.4 hPa WNW 15 km/h 15 km/h 55 % 0 mm 0.0 W/m2 CLR
21:04 -9.2 °C -14.2 °C 34601.5 hPa NW 23.3 km/h 23.3 km/h 55 % 0 mm 0.0 W/m2 CLR
21:09 -9.3 °C -14.1 °C 34601.5 hPa NW 23.8 km/h 23.8 km/h 56 % 0 mm 0.0 W/m2 CLR
21:14 -9.3 °C -14.1 °C 34601.5 hPa WNW 47.6 km/h 47.6 km/h 57 % 0 mm 0.0 W/m2 CLR
21:19 -9.4 °C -14.1 °C 34601.5 hPa NW 29.8 km/h 29.8 km/h 57 % 0 mm 0.0 W/m2 CLR
21:24 -9.5 °C -14.1 °C 34611.7 hPa WNW 26.9 km/h 26.9 km/h 58 % 0 mm 0.0 W/m2 CLR
21:29 -9.6 °C -14.1 °C 34611.7 hPa WNW 47.6 km/h 47.6 km/h 58 % 0 mm 0.0 W/m2 CLR
21:34 -9.6 °C -14.1 °C 34611.7 hPa WNW 38.8 km/h 38.8 km/h 58 % 0 mm 0.0 W/m2 CLR
21:39 -9.7 °C -14.2 °C 34611.7 hPa NW 32.8 km/h 32.8 km/h 58 % 0 mm 0.0 W/m2 CLR
21:44 -9.7 °C -14.3 °C 34625.2 hPa West 32.8 km/h 32.8 km/h 58 % 0 mm 0.0 W/m2 CLR
21:49 -9.8 °C -14.2 °C 34625.2 hPa NW 38.8 km/h 38.8 km/h 59 % 0 mm 0.0 W/m2 CLR
21:54 -9.8 °C -14.2 °C 34625.2 hPa WNW 29.8 km/h 29.8 km/h 59 % 0 mm 0.0 W/m2 CLR
21:59 -9.9 °C -14.3 °C 34625.2 hPa West 26.9 km/h 26.9 km/h 59 % 0 mm 0.0 W/m2 CLR
22:04 -9.9 °C -14.3 °C 34625.2 hPa West 25.9 km/h 25.9 km/h 59 % 0 mm 0.0 W/m2 CLR
22:09 -9.9 °C -14.3 °C 34625.2 hPa West 17.9 km/h 17.9 km/h 59 % 0 mm 0.0 W/m2 CLR
22:14 -10.1 °C -14.4 °C 34625.2 hPa NW 9 km/h 9 km/h 59 % 0 mm 0.0 W/m2 CLR
22:19 -10.1 °C -14.3 °C 34635.4 hPa West 25.9 km/h 25.9 km/h 60 % 0 mm 0.0 W/m2 CLR
22:24 -10.2 °C -14.4 °C 34635.4 hPa West 20.9 km/h 20.9 km/h 60 % 0 mm 0.0 W/m2 CLR
22:29 -10.2 °C -14.4 °C 34635.4 hPa West 26.9 km/h 26.9 km/h 60 % 0 mm 0.0 W/m2 CLR
22:34 -10.3 °C -14.5 °C 34635.4 hPa WSW 32.8 km/h 32.8 km/h 60 % 0 mm 0.0 W/m2 CLR
22:39 -10.3 °C -14.5 °C 34635.4 hPa West 29.8 km/h 29.8 km/h 60 % 0 mm 0.0 W/m2 CLR
22:44 -10.3 °C -14.6 °C 34635.4 hPa West 23.8 km/h 23.8 km/h 60 % 0 mm 0.0 W/m2 CLR
22:49 -10.3 °C -14.6 °C 34635.4 hPa West 29.8 km/h 29.8 km/h 60 % 0 mm 0.0 W/m2 CLR
22:54 -10.4 °C -14.5 °C 34635.4 hPa West 32.8 km/h 32.8 km/h 61 % 0 mm 0.0 W/m2 CLR
22:59 -10.4 °C -14.6 °C 34635.4 hPa WSW 33.6 km/h 33.6 km/h 61 % 0 mm 0.0 W/m2 CLR
23:04 -10.4 °C -14.6 °C 34635.4 hPa West 23.3 km/h 23.3 km/h 61 % 0 mm 0.0 W/m2 CLR
23:09 -10.5 °C -14.6 °C 34635.4 hPa West 26.9 km/h 26.9 km/h 61 % 0 mm 0.0 W/m2 CLR
23:14 -10.6 °C -14.7 °C 34635.4 hPa WNW 29.8 km/h 29.8 km/h 61 % 0 mm 0.0 W/m2 CLR
23:19 -10.6 °C -14.7 °C 34645.6 hPa West 23.8 km/h 23.8 km/h 61 % 0 mm 0.0 W/m2 CLR
23:24 -10.6 °C -14.7 °C 34645.6 hPa SW 17.9 km/h 17.9 km/h 61 % 0 mm 0.0 W/m2 CLR
23:29 -10.7 °C -14.8 °C 34645.6 hPa WSW 23.8 km/h 23.8 km/h 61 % 0 mm 0.0 W/m2 CLR
23:34 -10.8 °C -14.8 °C 34645.6 hPa WSW 7.7 km/h 7.7 km/h 61 % 0 mm 0.0 W/m2 CLR
23:39 -10.8 °C -14.8 °C 34645.6 hPa West 23.8 km/h 23.8 km/h 61 % 0 mm 0.0 W/m2 CLR
23:44 -10.8 °C -14.8 °C 34645.6 hPa WNW 20.8 km/h 20.8 km/h 61 % 0 mm 0.0 W/m2 CLR
23:49 -10.8 °C -14.9 °C 34645.6 hPa WNW 38.8 km/h 38.8 km/h 61 % 0 mm 0.0 W/m2 CLR
23:54 -10.8 °C -14.9 °C 34645.6 hPa WSW 26.9 km/h 26.9 km/h 61 % 0 mm 0.0 W/m2 CLR
23:59 -10.9 °C -14.9 °C 34645.6 hPa WSW 29.8 km/h 29.8 km/h 61 % 0 mm 0.0 W/m2 CLR
Lo Temps de Massalio
Compliments of Weather Underground - 1.25 mb